Time;durP1;ratioP1;P1;durP2;ratioP2;P2;SDS_P1;SDS_P2;PMS_P1;PMS_P2;Temp;Humidity;BMP_temperature;BMP_pressure;BME280_temperature;BME280_humidity;BME280_pressure;Samples;Min_cycle;Max_cycle;Signal;HPM_P1;HPM_P2
2021/07/11 00:01:44;;;;;;;0.70;0.60;;;15.80;99.90;;;-143.50;100.00;58913.53;4995868;28;20457;-79
2021/07/11 00:04:12;;;;;;;0.70;0.60;;;15.70;99.90;;;-143.50;100.00;58913.53;4995587;28;20488;-79
2021/07/11 00:06:39;;;;;;;0.70;0.60;;;15.70;99.90;;;-143.50;100.00;58913.53;5021522;28;20837;-79
2021/07/11 00:09:08;;;;;;;0.70;0.60;;;15.70;99.90;;;-143.50;100.00;58913.53;4953447;28;20488;-79
2021/07/11 00:11:36;;;;;;;0.70;0.70;;;15.70;99.90;;;-143.50;100.00;58913.53;4979488;28;20451;-79
2021/07/11 00:14:05;;;;;;;0.70;0.60;;;15.60;99.90;;;-143.50;100.00;58913.53;4995549;28;20424;-78
2021/07/11 00:16:33;;;;;;;0.70;0.60;;;15.70;99.90;;;-143.50;100.00;58913.53;4979824;28;20530;-79
2021/07/11 00:19:02;;;;;;;0.70;0.60;;;15.60;99.90;;;-143.50;100.00;58913.53;4974863;28;20845;-79
2021/07/11 00:21:29;;;;;;;0.70;0.70;;;15.60;99.90;;;-143.50;100.00;58913.53;4989145;28;20446;-79
2021/07/11 00:23:58;;;;;;;0.70;0.60;;;15.60;99.90;;;-143.50;100.00;58913.53;4976381;28;20480;-79
2021/07/11 00:26:25;;;;;;;0.70;0.60;;;15.60;99.90;;;-143.50;100.00;58913.53;5009204;28;20432;-79
2021/07/11 00:28:56;;;;;;;0.70;0.70;;;15.50;99.90;;;-143.50;100.00;58913.53;4998795;28;20478;-79
2021/07/11 00:31:25;;;;;;;0.70;0.70;;;15.50;99.90;;;-143.50;100.00;58913.53;4979881;28;20852;-79
2021/07/11 00:33:53;;;;;;;0.70;0.70;;;15.60;99.90;;;-143.50;100.00;58913.53;4995221;28;20505;-79
2021/07/11 00:36:21;;;;;;;0.80;0.70;;;15.60;99.90;;;-143.50;100.00;58913.53;4995849;28;20950;-79
2021/07/11 00:38:49;;;;;;;0.70;0.60;;;15.60;99.90;;;-143.50;100.00;58913.53;5009872;28;20459;-79
2021/07/11 00:41:23;;;;;;;0.70;0.60;;;15.60;99.90;;;-143.50;100.00;58913.53;4988550;28;20438;-79
2021/07/11 00:43:52;;;;;;;0.70;0.60;;;15.70;99.90;;;-143.50;100.00;58913.53;4995948;28;20440;-78
2021/07/11 00:46:23;;;;;;;0.70;0.60;;;15.70;99.90;;;-143.50;100.00;58913.53;4995781;28;20425;-79
2021/07/11 00:48:52;;;;;;;0.70;0.70;;;15.70;99.90;;;-143.50;100.00;58913.53;4979451;28;20473;-78
2021/07/11 00:51:22;;;;;;;0.70;0.60;;;15.70;99.90;;;-143.50;100.00;58913.53;4993635;28;20448;-78
2021/07/11 00:53:50;;;;;;;0.70;0.60;;;15.80;99.90;;;-143.50;100.00;58913.53;5010920;28;20899;-78
2021/07/11 00:56:19;;;;;;;0.70;0.60;;;15.80;99.90;;;-143.50;100.00;58913.53;4994929;28;20441;-78
2021/07/11 00:58:48;;;;;;;0.70;0.60;;;15.80;99.90;;;-143.50;100.00;58913.53;4979457;28;20481;-78
2021/07/11 01:01:23;;;;;;;0.70;0.60;;;15.80;99.90;;;-143.50;100.00;58913.53;4978798;28;20807;-79
2021/07/11 01:04:01;;;;;;;0.70;0.70;;;15.80;99.90;;;-143.50;100.00;58913.53;4977790;28;20457;-78
2021/07/11 01:06:37;;;;;;;0.70;0.70;;;15.80;99.90;;;-143.50;100.00;58913.53;4994373;28;20807;-78
2021/07/11 01:09:12;;;;;;;0.70;0.70;;;15.80;99.90;;;-143.50;100.00;58913.53;4995373;28;20515;-78
2021/07/11 01:11:54;;;;;;;0.70;0.60;;;15.80;99.90;;;-143.50;100.00;58913.53;4995688;28;20452;-78
2021/07/11 01:14:23;;;;;;;0.80;0.70;;;15.90;99.90;;;-143.50;100.00;58913.53;5011257;28;20590;-78
2021/07/11 01:16:54;;;;;;;0.70;0.70;;;15.90;99.90;;;-143.50;100.00;58913.53;4994822;28;20436;-78
2021/07/11 01:19:49;;;;;;;0.70;0.70;;;15.90;99.90;;;-143.50;100.00;58913.53;5009710;28;20481;-78
2021/07/11 01:22:22;;;;;;;0.70;0.67;;;15.90;99.90;;;-143.50;100.00;58913.53;4994386;28;20451;-78
2021/07/11 01:24:59;;;;;;;0.70;0.60;;;15.90;99.90;;;-143.50;100.00;58913.53;5015099;28;20446;-78
2021/07/11 01:27:32;;;;;;;0.70;0.60;;;15.90;99.90;;;-143.50;100.00;58913.53;4959394;28;20818;-79
2021/07/11 01:30:07;;;;;;;0.70;0.70;;;15.90;99.90;;;-143.50;100.00;58913.53;4987169;28;20466;-78
2021/07/11 01:32:40;;;;;;;0.70;0.60;;;15.90;99.90;;;-143.50;100.00;58913.53;5026664;28;20431;-78
2021/07/11 01:35:09;;;;;;;0.70;0.60;;;15.90;99.90;;;-143.50;100.00;58913.53;4993575;28;20493;-78
2021/07/11 01:37:38;;;;;;;0.70;0.60;;;15.90;99.90;;;-143.50;100.00;58913.53;5026510;28;20901;-79
2021/07/11 01:40:08;;;;;;;0.70;0.70;;;15.90;99.90;;;-143.50;100.00;58913.53;5009387;28;20801;-79
2021/07/11 01:42:38;;;;;;;0.70;0.60;;;15.90;99.90;;;-143.50;100.00;58913.53;5010017;28;20442;-78
2021/07/11 01:45:08;;;;;;;0.70;0.70;;;15.90;99.90;;;-143.50;100.00;58913.53;4994154;28;20454;-79
2021/07/11 01:47:37;;;;;;;0.70;0.70;;;15.90;99.90;;;-143.50;100.00;58913.53;5009102;28;20487;-78
2021/07/11 01:50:09;;;;;;;0.70;0.70;;;16.00;99.90;;;-143.50;100.00;58913.53;4993974;28;20444;-79
2021/07/11 01:52:38;;;;;;;0.70;0.63;;;16.00;99.90;;;-143.50;100.00;58913.53;4977763;28;20438;-78
2021/07/11 01:55:09;;;;;;;0.80;0.80;;;16.00;99.90;;;-143.50;100.00;58913.53;4976757;28;20459;-79
2021/07/11 01:57:41;;;;;;;0.70;0.67;;;16.00;99.90;;;-143.50;100.00;58913.53;4993569;28;20442;-78
2021/07/11 02:00:14;;;;;;;0.70;0.60;;;16.00;99.90;;;-143.50;100.00;58913.53;4993572;28;20483;-78
2021/07/11 02:02:45;;;;;;;0.70;0.70;;;16.00;99.90;;;-143.50;100.00;58913.53;5024947;28;20437;-79
2021/07/11 02:05:32;;;;;;;0.73;0.73;;;16.00;99.90;;;-143.50;100.00;58913.53;4993378;28;20866;-79
2021/07/11 02:08:05;;;;;;;0.70;0.60;;;16.00;99.90;;;-143.50;100.00;58913.53;4992999;28;20473;-78
2021/07/11 02:10:36;;;;;;;0.70;0.60;;;16.00;99.90;;;-143.50;100.00;58913.53;4993041;28;20460;-79
2021/07/11 02:13:23;;;;;;;0.70;0.70;;;16.00;99.90;;;-143.50;100.00;58913.53;4993797;28;20441;-78
2021/07/11 02:16:03;;;;;;;0.70;0.60;;;16.00;99.90;;;-143.50;100.00;58913.53;4993246;28;20433;-79
2021/07/11 02:18:32;;;;;;;0.70;0.60;;;16.00;99.90;;;-143.50;100.00;58913.53;5004237;28;20480;-78
2021/07/11 02:21:02;;;;;;;0.70;0.70;;;15.90;99.90;;;-143.50;100.00;58913.53;4989923;28;20846;-79
2021/07/11 02:23:33;;;;;;;0.70;0.70;;;15.90;99.90;;;-143.50;100.00;58913.53;5015208;28;20826;-78
2021/07/11 02:26:06;;;;;;;0.70;0.60;;;15.90;99.90;;;-143.50;100.00;58913.53;5001121;28;20538;-78
2021/07/11 02:28:39;;;;;;;0.73;0.70;;;15.90;99.90;;;-143.50;100.00;58913.53;4992622;28;20475;-78
2021/07/11 02:31:11;;;;;;;0.70;0.70;;;15.90;99.90;;;-143.50;100.00;58913.53;4992962;28;20492;-78
2021/07/11 02:33:41;;;;;;;0.70;0.60;;;15.90;99.90;;;-143.50;100.00;58913.53;4992327;28;20441;-78
2021/07/11 02:36:15;;;;;;;0.70;0.63;;;15.90;99.90;;;-143.50;100.00;58913.53;4976552;28;20455;-78
2021/07/11 02:38:48;;;;;;;0.70;0.60;;;15.90;99.90;;;-143.50;100.00;58913.53;4992988;28;20460;-78
2021/07/11 02:41:18;;;;;;;0.90;0.90;;;15.90;99.90;;;-143.50;100.00;58913.53;4983554;28;20445;-79
2021/07/11 02:43:50;;;;;;;0.70;0.60;;;15.80;99.90;;;-143.50;100.00;58913.53;4973468;28;20850;-79
2021/07/11 02:46:24;;;;;;;0.70;0.60;;;15.90;99.90;;;-143.50;100.00;58913.53;4975035;28;20450;-78
2021/07/11 02:48:55;;;;;;;0.70;0.60;;;15.90;99.90;;;-143.50;100.00;58913.53;4990707;28;20467;-78
2021/07/11 02:51:27;;;;;;;0.70;0.70;;;15.90;99.90;;;-143.50;100.00;58913.53;4992515;28;20500;-79
2021/07/11 02:53:59;;;;;;;0.70;0.70;;;15.90;99.90;;;-143.50;100.00;58913.53;4992956;28;20530;-79
2021/07/11 02:56:40;;;;;;;1.23;1.17;;;15.90;99.90;;;-143.50;100.00;58913.53;4992979;28;20442;-79
2021/07/11 02:59:15;;;;;;;0.70;0.60;;;15.90;99.90;;;-143.50;100.00;58913.53;4992318;28;20452;-79
2021/07/11 03:01:46;;;;;;;0.70;0.60;;;15.90;99.90;;;-143.50;100.00;58913.53;4957816;28;20517;-78
2021/07/11 03:04:20;;;;;;;0.70;0.70;;;15.90;99.90;;;-143.50;100.00;58913.53;4989349;28;20591;-79
2021/07/11 03:06:48;;;;;;;0.80;0.70;;;15.90;99.90;;;-143.50;100.00;58913.53;4973079;28;20437;-78
2021/07/11 03:09:16;;;;;;;0.70;0.70;;;15.80;99.90;;;-143.50;100.00;58913.53;4988793;28;20505;-78
2021/07/11 03:11:45;;;;;;;0.70;0.60;;;15.80;99.90;;;-143.50;100.00;58913.53;4989156;28;20437;-79
2021/07/11 03:14:15;;;;;;;0.70;0.60;;;15.80;99.90;;;-143.50;100.00;58913.53;4986543;28;20446;-79
2021/07/11 03:16:54;;;;;;;0.80;0.80;;;15.80;99.90;;;-143.50;100.00;58913.53;5029394;28;21008;-79
2021/07/11 03:19:27;;;;;;;0.70;0.70;;;15.80;99.90;;;-143.50;100.00;58913.53;4995570;28;20816;-79
2021/07/11 03:21:59;;;;;;;0.70;0.60;;;15.70;99.90;;;-143.50;100.00;58913.53;4980518;28;20432;-79
2021/07/11 03:24:31;;;;;;;0.70;0.70;;;15.70;99.90;;;-143.50;100.00;58913.53;4996298;28;20498;-79
2021/07/11 03:27:03;;;;;;;1.00;1.00;;;15.70;99.90;;;-143.50;100.00;58913.53;4996324;28;20535;-79
2021/07/11 03:29:39;;;;;;;0.70;0.60;;;15.80;99.90;;;-143.50;100.00;58913.53;4995602;28;20480;-79
2021/07/11 03:32:10;;;;;;;0.70;0.70;;;15.70;99.90;;;-143.50;100.00;58913.53;5012408;28;20449;-79
2021/07/11 03:34:39;;;;;;;0.70;0.70;;;15.70;99.90;;;-143.50;100.00;58913.53;4995797;28;20427;-79
2021/07/11 03:37:12;;;;;;;0.70;0.70;;;15.80;99.90;;;-143.50;100.00;58913.53;4996137;28;20441;-79
2021/07/11 03:39:46;;;;;;;0.70;0.70;;;15.80;99.90;;;-143.50;100.00;58913.53;4995761;28;20467;-79
2021/07/11 03:42:19;;;;;;;0.80;0.70;;;15.80;99.90;;;-143.50;100.00;58913.53;5011561;28;20924;-80
2021/07/11 03:44:58;;;;;;;0.70;0.60;;;15.80;99.90;;;-143.50;100.00;58913.53;4995262;28;20773;-79
2021/07/11 03:47:36;;;;;;;0.70;0.60;;;15.80;99.90;;;-143.50;100.00;58913.53;4979319;28;20433;-80
2021/07/11 03:50:06;;;;;;;0.70;0.60;;;15.80;99.90;;;-143.50;100.00;58913.53;4979587;28;20469;-79
2021/07/11 03:52:43;;;;;;;0.70;0.60;;;15.80;99.90;;;-143.50;100.00;58913.53;5028109;28;20436;-79
2021/07/11 03:55:12;;;;;;;0.70;0.70;;;15.80;99.90;;;-143.50;100.00;58913.53;4995239;28;20436;-79
2021/07/11 03:57:42;;;;;;;0.70;0.60;;;15.80;99.90;;;-143.50;100.00;58913.53;4995521;28;20432;-79
2021/07/11 04:00:15;;;;;;;0.70;0.60;;;15.80;99.90;;;-143.50;100.00;58913.53;4995643;28;20408;-79
2021/07/11 04:02:45;;;;;;;0.73;0.73;;;15.80;99.90;;;-143.50;100.00;58913.53;4995417;28;20461;-79
2021/07/11 04:05:15;;;;;;;0.70;0.70;;;15.80;99.90;;;-143.50;100.00;58913.53;4979773;28;20428;-79
2021/07/11 04:07:44;;;;;;;0.70;0.70;;;15.80;99.90;;;-143.50;100.00;58913.53;4992667;28;20465;-80
2021/07/11 04:10:13;;;;;;;1.13;1.13;;;15.80;99.90;;;-143.50;100.00;58913.53;4975974;28;21009;-79
2021/07/11 04:12:42;;;;;;;0.70;0.60;;;15.80;99.90;;;-143.50;100.00;58913.53;4988325;28;20437;-79
2021/07/11 04:15:14;;;;;;;0.70;0.70;;;15.90;99.90;;;-143.50;100.00;58913.53;4995173;28;20494;-80
2021/07/11 04:17:45;;;;;;;0.80;0.70;;;15.90;99.90;;;-143.50;100.00;58913.53;4978695;28;20451;-79
2021/07/11 04:20:15;;;;;;;0.70;0.60;;;15.90;99.90;;;-143.50;100.00;58913.53;4987684;28;20972;-79
2021/07/11 04:22:46;;;;;;;0.70;0.60;;;15.90;99.90;;;-143.50;100.00;58913.53;4972526;28;20512;-79
2021/07/11 04:25:15;;;;;;;0.70;0.60;;;15.90;99.90;;;-143.50;100.00;58913.53;4993904;28;20464;-79
2021/07/11 04:27:44;;;;;;;0.70;0.70;;;15.90;99.90;;;-143.50;100.00;58913.53;4994605;28;20477;-79
2021/07/11 04:30:16;;;;;;;0.70;0.60;;;15.90;99.90;;;-143.50;100.00;58913.53;4978715;28;20479;-78
2021/07/11 04:32:43;;;;;;;0.70;0.60;;;15.90;99.90;;;-143.50;100.00;58913.53;4994884;28;20435;-79
2021/07/11 04:35:12;;;;;;;0.70;0.60;;;15.90;99.90;;;-143.50;100.00;58913.53;4995127;28;20413;-79
2021/07/11 04:37:39;;;;;;;0.70;0.60;;;16.00;99.90;;;-143.50;100.00;58913.53;4994168;28;20469;-79
2021/07/11 04:40:09;;;;;;;0.70;0.70;;;16.00;99.90;;;-143.50;100.00;58913.53;4994784;28;20450;-79
2021/07/11 04:42:36;;;;;;;0.70;0.60;;;16.00;99.90;;;-143.50;100.00;58913.53;5027572;28;20414;-79
2021/07/11 04:45:06;;;;;;;0.70;0.70;;;16.00;99.90;;;-143.50;100.00;58913.53;4994396;28;20435;-79
2021/07/11 04:47:35;;;;;;;0.80;0.70;;;16.00;99.90;;;-143.50;100.00;58913.53;4994844;28;20445;-79
2021/07/11 04:50:04;;;;;;;0.70;0.70;;;16.00;99.90;;;-143.50;100.00;58913.53;4978440;28;20477;-79
2021/07/11 04:52:33;;;;;;;0.70;0.60;;;16.00;99.90;;;-143.50;100.00;58913.53;4990429;28;20473;-79
2021/07/11 04:55:01;;;;;;;0.70;0.60;;;16.00;99.90;;;-143.50;100.00;58913.53;4999602;28;20483;-79
2021/07/11 04:57:29;;;;;;;0.70;0.70;;;16.00;99.90;;;-143.50;100.00;58913.53;4975183;28;20457;-79
2021/07/11 04:59:58;;;;;;;0.70;0.70;;;16.10;99.90;;;-143.50;100.00;58913.53;4976565;28;20448;-79
2021/07/11 05:02:26;;;;;;;0.70;0.70;;;16.10;99.90;;;-143.50;100.00;58913.53;4994176;28;20445;-79
2021/07/11 05:04:55;;;;;;;0.70;0.70;;;16.20;99.90;;;-143.50;100.00;58913.53;4994540;28;20448;-79
2021/07/11 05:07:25;;;;;;;0.70;0.70;;;16.20;99.90;;;-143.50;100.00;58913.53;4978180;28;20963;-78
2021/07/11 05:09:53;;;;;;;0.70;0.60;;;16.20;99.90;;;-143.50;100.00;58913.53;4993273;28;20478;-79
2021/07/11 05:12:20;;;;;;;0.70;0.70;;;16.20;99.90;;;-143.50;100.00;58913.53;4994714;28;20813;-79
2021/07/11 05:14:50;;;;;;;0.70;0.70;;;16.30;99.90;;;-143.50;100.00;58913.53;4994514;28;20850;-79
2021/07/11 05:17:18;;;;;;;0.70;0.70;;;16.30;99.90;;;-143.50;100.00;58913.53;4994513;28;20438;-79
2021/07/11 05:19:45;;;;;;;0.70;0.60;;;16.30;99.90;;;-143.50;100.00;58913.53;4994524;28;20470;-79
2021/07/11 05:22:15;;;;;;;0.70;0.60;;;16.30;99.90;;;-143.50;100.00;58913.53;4994014;28;20430;-80
2021/07/11 05:24:43;;;;;;;0.70;0.70;;;16.40;99.90;;;-143.50;100.00;58913.53;4995324;28;20451;-79
2021/07/11 05:27:11;;;;;;;0.70;0.60;;;16.40;99.90;;;-143.50;100.00;58913.53;4978023;28;20937;-79
2021/07/11 05:29:38;;;;;;;0.70;0.60;;;16.40;99.90;;;-143.50;100.00;58913.53;4991171;28;20476;-79
2021/07/11 05:32:07;;;;;;;0.80;0.70;;;16.40;99.90;;;-143.50;100.00;58913.53;4994149;28;20479;-79
2021/07/11 05:34:34;;;;;;;0.70;0.60;;;16.50;99.90;;;-143.50;100.00;58913.53;5026614;28;20488;-79
2021/07/11 05:37:03;;;;;;;0.70;0.60;;;16.50;99.90;;;-143.50;100.00;58913.53;4993342;28;20448;-79
2021/07/11 05:39:34;;;;;;;0.70;0.63;;;16.60;99.90;;;-143.50;100.00;58913.53;4992541;28;20476;-78
2021/07/11 05:42:02;;;;;;;0.70;0.60;;;16.60;99.90;;;-143.50;100.00;58913.53;4993826;28;20969;-79
2021/07/11 05:44:29;;;;;;;0.70;0.60;;;16.60;99.90;;;-143.50;100.00;58913.53;4979166;28;20533;-80
2021/07/11 05:46:58;;;;;;;0.70;0.60;;;16.60;99.90;;;-143.50;100.00;58913.53;4974177;28;20485;-79
2021/07/11 05:49:25;;;;;;;0.70;0.60;;;16.60;99.90;;;-143.50;100.00;58913.53;4985387;28;20998;-79
2021/07/11 05:51:53;;;;;;;0.70;0.60;;;16.70;99.90;;;-143.50;100.00;58913.53;4994740;28;20424;-79
2021/07/11 05:54:20;;;;;;;0.70;0.60;;;16.70;99.90;;;-143.50;100.00;58913.53;4994615;28;20516;-79
2021/07/11 05:56:50;;;;;;;0.70;0.70;;;16.70;99.90;;;-143.50;100.00;58913.53;5026456;28;20807;-78
2021/07/11 05:59:18;;;;;;;0.70;0.63;;;16.70;99.90;;;-143.50;100.00;58913.53;4992991;28;20815;-78
2021/07/11 06:01:45;;;;;;;0.70;0.70;;;16.70;99.90;;;-143.50;100.00;58913.53;4991857;28;20461;-79
2021/07/11 06:04:13;;;;;;;0.77;0.70;;;16.70;99.90;;;-143.50;100.00;58913.53;4993923;28;20521;-79
2021/07/11 06:06:40;;;;;;;1.03;1.03;;;16.70;99.90;;;-143.50;100.00;58913.53;4991805;28;20433;-79
2021/07/11 06:09:08;;;;;;;0.70;0.70;;;16.70;99.90;;;-143.50;100.00;58913.53;4997025;28;21015;-79
2021/07/11 06:11:35;;;;;;;0.70;0.60;;;16.80;99.90;;;-143.50;100.00;58913.53;4993388;28;20433;-79
2021/07/11 06:14:04;;;;;;;0.70;0.67;;;16.90;99.90;;;-143.50;100.00;58913.53;4975660;28;20437;-79
2021/07/11 06:16:31;;;;;;;0.70;0.60;;;16.90;99.90;;;-143.50;100.00;58913.53;4992731;28;20936;-79
2021/07/11 06:19:00;;;;;;;0.70;0.60;;;16.90;99.90;;;-143.50;100.00;58913.53;4990096;28;20885;-78
2021/07/11 06:21:28;;;;;;;0.70;0.70;;;17.10;99.90;;;-143.50;100.00;58913.53;4992187;28;20439;-78
2021/07/11 06:23:55;;;;;;;0.70;0.60;;;17.10;99.90;;;-143.50;100.00;58913.53;4993739;28;20456;-78
2021/07/11 06:26:23;;;;;;;0.70;0.67;;;17.10;99.90;;;-143.50;100.00;58913.53;4994247;28;20526;-78
2021/07/11 06:28:51;;;;;;;0.70;0.60;;;17.20;99.90;;;-143.50;100.00;58913.53;4994102;28;20533;-78
2021/07/11 06:31:20;;;;;;;0.70;0.70;;;17.10;99.90;;;-143.50;100.00;58913.53;4993703;28;20530;-78
2021/07/11 06:33:47;;;;;;;0.70;0.60;;;17.10;99.90;;;-143.50;100.00;58913.53;5027455;28;20437;-79
2021/07/11 06:36:15;;;;;;;0.70;0.60;;;17.10;99.90;;;-143.50;100.00;58913.53;4993916;28;20533;-79
2021/07/11 06:38:43;;;;;;;1.43;1.33;;;17.10;99.90;;;-143.50;100.00;58913.53;4977578;28;20483;-79
2021/07/11 06:41:10;;;;;;;0.80;0.80;;;17.10;99.90;;;-143.50;100.00;58913.53;4993315;28;20536;-79
2021/07/11 06:43:38;;;;;;;0.70;0.60;;;17.10;99.90;;;-143.50;100.00;58913.53;4994955;28;20446;-78
2021/07/11 06:46:06;;;;;;;0.80;0.80;;;17.10;99.90;;;-143.50;100.00;58913.53;4992690;28;20450;-79
2021/07/11 06:48:36;;;;;;;0.77;0.73;;;17.10;99.90;;;-143.50;100.00;58913.53;4992332;28;20494;-79
2021/07/11 06:51:04;;;;;;;0.70;0.60;;;17.10;99.90;;;-143.50;100.00;58913.53;4976138;28;20830;-78
2021/07/11 06:53:32;;;;;;;0.70;0.70;;;17.10;99.90;;;-143.50;100.00;58913.53;5025128;28;20873;-78
2021/07/11 06:55:59;;;;;;;0.70;0.60;;;17.10;99.90;;;-143.50;100.00;58913.53;4992723;28;20466;-79
2021/07/11 06:58:27;;;;;;;0.70;0.67;;;17.10;99.90;;;-143.50;100.00;58913.53;4994513;28;20472;-78
2021/07/11 07:00:54;;;;;;;0.70;0.60;;;17.10;99.90;;;-143.50;100.00;58913.53;4992819;28;20461;-79
2021/07/11 07:03:22;;;;;;;0.70;0.60;;;17.10;99.90;;;-143.50;100.00;58913.53;4992966;28;20449;-78
2021/07/11 07:05:51;;;;;;;0.80;0.70;;;17.20;99.90;;;-143.50;100.00;58913.53;4973881;28;20439;-79
2021/07/11 07:08:19;;;;;;;0.70;0.70;;;17.10;99.90;;;-143.50;100.00;58913.53;4982144;28;20464;-79
2021/07/11 07:10:46;;;;;;;0.70;0.60;;;17.10;99.90;;;-143.50;100.00;58913.53;4990172;28;20470;-78
2021/07/11 07:13:14;;;;;;;0.70;0.70;;;17.00;99.90;;;-143.50;100.00;58913.53;4983822;28;20462;-78
2021/07/11 07:15:41;;;;;;;0.80;0.80;;;17.00;99.90;;;-143.50;100.00;58913.53;4992000;28;20465;-78
2021/07/11 07:18:26;;;;;;;0.70;0.67;;;17.10;99.90;;;-143.50;100.00;58913.53;4978829;28;20431;-79
2021/07/11 07:20:55;;;;;;;0.70;0.60;;;17.10;99.90;;;-143.50;100.00;58913.53;4985967;28;20495;-78
2021/07/11 07:23:23;;;;;;;0.70;0.67;;;17.10;99.90;;;-143.50;100.00;58913.53;4991218;28;21003;-79
2021/07/11 07:25:50;;;;;;;0.70;0.60;;;17.20;99.90;;;-143.50;100.00;58913.53;4992995;28;20484;-78
2021/07/11 07:28:35;;;;;;;0.70;0.70;;;17.20;99.90;;;-143.50;100.00;58913.53;4993588;28;20421;-78
2021/07/11 07:31:02;;;;;;;0.70;0.60;;;17.30;99.90;;;-143.50;100.00;58913.53;4976048;28;20470;-78
2021/07/11 07:33:30;;;;;;;0.70;0.60;;;17.40;99.90;;;-143.50;100.00;58913.53;4983743;28;20470;-78
2021/07/11 07:35:59;;;;;;;0.70;0.70;;;17.50;99.90;;;-143.50;100.00;58913.53;4989509;28;20449;-78
2021/07/11 07:38:27;;;;;;;0.70;0.70;;;17.60;99.90;;;-143.50;100.00;58913.53;4992208;28;20521;-78
2021/07/11 07:40:54;;;;;;;0.70;0.60;;;17.70;99.90;;;-143.50;100.00;58913.53;4978983;28;20454;-79
2021/07/11 07:43:21;;;;;;;0.87;0.87;;;17.70;99.90;;;-143.50;100.00;58913.53;4973560;28;20944;-78
2021/07/11 07:45:49;;;;;;;0.73;0.70;;;17.80;99.90;;;-143.50;100.00;58913.53;4992186;28;20424;-78
2021/07/11 07:48:17;;;;;;;0.70;0.60;;;17.80;99.90;;;-143.50;100.00;58913.53;4992250;28;20447;-78
2021/07/11 07:50:44;;;;;;;0.70;0.60;;;17.80;99.90;;;-143.50;100.00;58913.53;4991528;28;20489;-78
2021/07/11 07:53:13;;;;;;;0.70;0.60;;;17.80;99.90;;;-143.50;100.00;58913.53;4991659;28;20994;-78
2021/07/11 07:55:40;;;;;;;0.80;0.70;;;17.80;99.90;;;-143.50;100.00;58913.53;4992267;28;20904;-78
2021/07/11 07:58:08;;;;;;;0.70;0.70;;;17.70;99.90;;;-143.50;100.00;58913.53;4987387;28;20441;-77
2021/07/11 08:00:35;;;;;;;0.70;0.60;;;17.60;99.90;;;-143.50;100.00;58913.53;4991408;28;20454;-78
2021/07/11 08:03:03;;;;;;;0.70;0.60;;;17.60;99.90;;;-143.50;100.00;58913.53;4995358;28;20515;-78
2021/07/11 08:05:30;;;;;;;0.80;0.70;;;17.60;99.90;;;-143.50;100.00;58913.53;4990192;28;20846;-77
2021/07/11 08:07:58;;;;;;;0.70;0.60;;;17.50;99.90;;;-143.50;100.00;58913.53;4992422;28;20459;-78
2021/07/11 08:10:27;;;;;;;0.70;0.60;;;17.50;99.90;;;-143.50;100.00;58913.53;4989752;28;20545;-77
2021/07/11 08:12:54;;;;;;;0.70;0.70;;;17.50;99.90;;;-143.50;100.00;58913.53;4980735;28;20443;-77
2021/07/11 08:15:22;;;;;;;0.70;0.63;;;17.50;99.90;;;-143.50;100.00;58913.53;4989684;28;20441;-76
2021/07/11 08:17:50;;;;;;;0.70;0.60;;;17.50;99.90;;;-143.50;100.00;58913.53;4987651;28;20994;-77
2021/07/11 08:20:21;;;;;;;0.80;0.80;;;17.50;99.90;;;-143.50;100.00;58913.53;4981371;28;20425;-77
2021/07/11 08:22:50;;;;;;;0.70;0.60;;;17.50;99.90;;;-143.50;100.00;58913.53;5008842;28;20476;-77
2021/07/11 08:25:18;;;;;;;0.70;0.60;;;17.50;99.90;;;-143.50;100.00;58913.53;4967717;28;20438;-77
2021/07/11 08:27:48;;;;;;;0.80;0.80;;;17.60;99.90;;;-143.50;100.00;58913.53;4989444;28;20409;-77
2021/07/11 08:30:18;;;;;;;0.70;0.70;;;17.70;99.90;;;-143.50;100.00;58913.53;4992812;28;20525;-77
2021/07/11 08:32:46;;;;;;;0.70;0.60;;;17.70;99.90;;;-143.50;100.00;58913.53;4990786;28;20421;-77
2021/07/11 08:35:16;;;;;;;0.70;0.70;;;17.80;99.90;;;-143.50;100.00;58913.53;4973637;28;20422;-78
2021/07/11 08:37:46;;;;;;;0.70;0.60;;;17.90;99.90;;;-143.50;100.00;58913.53;4974580;28;20452;-78
2021/07/11 08:40:14;;;;;;;0.70;0.70;;;18.10;99.90;;;-143.50;100.00;58913.53;4975722;28;20482;-78
2021/07/11 08:42:52;;;;;;;0.80;0.70;;;18.20;99.90;;;-143.50;100.00;58913.53;4989475;28;20815;-78
2021/07/11 08:45:20;;;;;;;0.70;0.60;;;18.30;99.90;;;-143.50;100.00;58913.53;4996142;28;20438;-78
2021/07/11 08:47:47;;;;;;;0.70;0.60;;;18.60;99.90;;;-143.50;100.00;58913.53;4994910;28;20807;-78
2021/07/11 08:50:16;;;;;;;0.80;0.70;;;18.80;99.90;;;-143.50;100.00;58913.53;4982485;28;20462;-78
2021/07/11 08:52:46;;;;;;;0.70;0.60;;;19.20;99.90;;;-143.50;100.00;58913.53;4995261;28;20452;-78
2021/07/11 08:55:17;;;;;;;0.70;0.60;;;19.60;99.90;;;-143.50;100.00;58913.53;5025999;28;20434;-77
2021/07/11 08:57:49;;;;;;;0.80;0.73;;;19.90;99.90;;;-143.50;100.00;58913.53;4994538;28;20439;-78
2021/07/11 09:00:23;;;;;;;0.70;0.63;;;20.30;99.90;;;-143.50;100.00;58913.53;4994426;28;20493;-78
2021/07/11 09:02:51;;;;;;;0.70;0.60;;;20.40;99.90;;;-143.50;100.00;58913.53;4994607;28;20462;-78
2021/07/11 09:05:28;;;;;;;0.70;0.60;;;20.80;99.90;;;-143.50;100.00;58913.53;4995486;28;20423;-77
2021/07/11 09:08:00;;;;;;;0.70;0.60;;;20.80;99.90;;;-143.50;100.00;58913.53;4991930;28;20465;-78
2021/07/11 09:10:34;;;;;;;0.70;0.60;;;20.80;99.90;;;-143.50;100.00;58913.53;5009738;28;21062;-78
2021/07/11 09:13:08;;;;;;;0.70;0.63;;;20.80;99.90;;;-143.50;100.00;58913.53;4975565;28;20511;-78
2021/07/11 09:15:38;;;;;;;0.73;0.70;;;20.80;99.90;;;-143.50;100.00;58913.53;4974793;28;20443;-78
2021/07/11 09:18:06;;;;;;;0.70;0.63;;;20.90;99.90;;;-143.50;100.00;58913.53;4976035;28;20451;-78
2021/07/11 09:20:50;;;;;;;0.70;0.60;;;20.90;99.90;;;-143.50;100.00;58913.53;4984971;28;20441;-77
2021/07/11 09:23:18;;;;;;;0.77;0.70;;;21.00;99.90;;;-143.50;100.00;58913.53;4995168;28;20582;-77
2021/07/11 09:26:00;;;;;;;0.70;0.60;;;21.10;99.90;;;-143.50;100.00;58913.53;4992316;28;20526;-78
2021/07/11 09:28:30;;;;;;;0.70;0.60;;;21.20;99.90;;;-143.50;100.00;58913.53;5027104;28;20427;-77
2021/07/11 09:31:09;;;;;;;0.70;0.60;;;21.40;99.90;;;-143.50;100.00;58913.53;4991137;28;20480;-78
2021/07/11 09:33:39;;;;;;;0.70;0.60;;;21.70;99.90;;;-143.50;100.00;58913.53;4987402;28;20525;-77
2021/07/11 09:36:11;;;;;;;0.70;0.60;;;21.90;99.90;;;-143.50;100.00;58913.53;4988633;28;20427;-77
2021/07/11 09:38:39;;;;;;;1.00;0.90;;;22.00;99.90;;;-143.50;100.00;58913.53;4981034;28;20903;-77
2021/07/11 09:41:20;;;;;;;0.70;0.60;;;22.00;99.90;;;-143.50;100.00;58913.53;4997740;28;20470;-76
2021/07/11 09:43:49;;;;;;;0.70;0.60;;;22.00;99.90;;;-143.50;100.00;58913.53;4986342;28;20432;-77
2021/07/11 09:46:19;;;;;;;0.80;0.80;;;22.30;99.90;;;-143.50;100.00;58913.53;4981004;28;20431;-76
2021/07/11 09:48:49;;;;;;;0.70;0.60;;;22.60;99.90;;;-143.50;100.00;58913.53;4976282;28;20443;-77
2021/07/11 09:51:20;;;;;;;0.70;0.60;;;23.20;99.90;;;-143.50;100.00;58913.53;4989537;28;20497;-77
2021/07/11 09:53:49;;;;;;;0.70;0.60;;;23.50;99.90;;;-143.50;100.00;58913.53;4993677;28;20458;-78
2021/07/11 09:56:36;;;;;;;0.70;0.50;;;24.20;99.90;;;-143.50;100.00;58913.53;4992726;28;20427;-77
2021/07/11 09:59:06;;;;;;;0.70;0.50;;;24.70;99.90;;;-143.50;100.00;58913.53;4991401;28;20438;-78
2021/07/11 10:01:37;;;;;;;0.70;0.50;;;24.90;99.90;;;-143.50;100.00;58913.53;4985065;28;20455;-78
2021/07/11 10:04:05;;;;;;;0.70;0.53;;;24.60;99.90;;;-143.50;100.00;58913.53;4986710;28;20580;-77
2021/07/11 10:06:35;;;;;;;0.70;0.53;;;24.10;99.90;;;-143.50;100.00;58913.53;4985912;28;20539;-77
2021/07/11 10:09:04;;;;;;;0.70;0.50;;;23.70;99.90;;;-143.50;100.00;58913.53;4970581;28;20451;-77
2021/07/11 10:11:32;;;;;;;0.70;0.60;;;23.40;99.90;;;-143.50;100.00;58913.53;4994099;28;20462;-77
2021/07/11 10:14:00;;;;;;;0.70;0.50;;;23.30;99.90;;;-143.50;100.00;58913.53;4992292;28;20430;-77